Time;durP1;ratioP1;P1;durP2;ratioP2;P2;SDS_P1;SDS_P2;PMS_P1;PMS_P2;Temp;Humidity;BMP_temperature;BMP_pressure;BME280_temperature;BME280_humidity;BME280_pressure;Samples;Min_cycle;Max_cycle;Signal;HPM_P1;HPM_P2
2023/03/23 04:00:14;;;;;;;5.37;4.80;;;10.90;99.90;;;;;;5961246;23;20567;31
2023/03/23 04:02:50;;;;;;;7.40;6.80;;;11.00;99.90;;;;;;4895788;29;20355;-76
2023/03/23 04:05:16;;;;;;;7.17;6.77;;;11.00;99.90;;;;;;4913293;29;20213;-75
2023/03/23 04:07:42;;;;;;;14.40;13.60;;;11.00;99.90;;;;;;4879886;29;20193;-76
2023/03/23 04:10:10;;;;;;;23.53;22.33;;;11.00;99.90;;;;;;4878349;29;20181;-76
2023/03/23 04:12:37;;;;;;;21.37;20.27;;;11.10;99.90;;;;;;4878899;29;20528;-76
2023/03/23 04:15:04;;;;;;;18.77;17.87;;;11.20;99.90;;;;;;4913756;23;20273;-73
2023/03/23 04:17:30;;;;;;;20.37;19.37;;;11.20;99.90;;;;;;4898096;29;20188;-73
2023/03/23 04:20:07;;;;;;;18.97;17.97;;;11.30;99.90;;;;;;4897883;29;20199;-75
2023/03/23 04:22:33;;;;;;;18.40;17.40;;;11.30;99.90;;;;;;4898952;29;20183;-73
2023/03/23 04:25:02;;;;;;;19.50;18.47;;;11.30;99.90;;;;;;4899013;29;20287;-73
2023/03/23 04:27:28;;;;;;;18.70;17.17;;;11.30;99.90;;;;;;4898012;29;20320;-72
2023/03/23 04:29:57;;;;;;;19.63;18.57;;;11.30;99.90;;;;;;4897849;29;20187;-73
2023/03/23 04:32:28;;;;;;;18.80;17.77;;;11.30;99.90;;;;;;4898497;29;20180;-73
2023/03/23 04:34:57;;;;;;;21.50;20.30;;;11.30;99.90;;;;;;4898118;29;20203;-73
2023/03/23 04:37:28;;;;;;;18.03;17.13;;;11.20;99.90;;;;;;4880887;29;20208;-74
2023/03/23 04:40:00;;;;;;;19.27;18.37;;;11.30;99.90;;;;;;4880729;29;20270;-73
2023/03/23 04:42:32;;;;;;;21.53;20.30;;;11.30;99.90;;;;;;4897895;29;20184;-74
2023/03/23 04:44:59;;;;;;;17.30;16.40;;;11.30;99.90;;;;;;4897663;29;20650;-74
2023/03/23 04:47:29;;;;;;;16.80;15.70;;;11.30;99.90;;;;;;4897562;29;20644;-74
2023/03/23 04:49:57;;;;;;;16.27;15.47;;;11.30;99.90;;;;;;4899434;29;20656;-76
2023/03/23 04:52:25;;;;;;;15.73;14.17;;;11.30;99.90;;;;;;4883240;29;20636;-74
2023/03/23 04:54:52;;;;;;;16.20;15.30;;;11.30;99.90;;;;;;4899529;29;20204;-75
2023/03/23 04:57:18;;;;;;;21.90;20.63;;;11.30;99.90;;;;;;4899458;29;20188;-75
2023/03/23 04:59:44;;;;;;;32.80;31.00;;;11.30;99.90;;;;;;4897197;29;20184;-67
2023/03/23 05:02:12;;;;;;;30.60;29.10;;;11.30;99.90;;;;;;4897685;29;20195;-69
2023/03/23 05:04:40;;;;;;;31.60;29.90;;;11.30;99.90;;;;;;4897886;29;20283;-68
2023/03/23 05:07:07;;;;;;;33.10;31.40;;;11.30;99.90;;;;;;4880261;29;20212;-68
2023/03/23 05:09:35;;;;;;;33.67;31.70;;;11.30;99.90;;;;;;4897219;29;20184;-67
2023/03/23 05:12:09;;;;;;;36.53;34.13;;;11.40;99.90;;;;;;4897522;29;20313;-67
2023/03/23 05:14:36;;;;;;;35.27;33.10;;;11.30;99.90;;;;;;4897221;29;20707;-67
2023/03/23 05:17:02;;;;;;;35.73;33.63;;;11.40;99.90;;;;;;4880641;29;20191;-66
2023/03/23 05:19:27;;;;;;;36.33;34.23;;;11.40;99.90;;;;;;4896936;29;20203;-67
2023/03/23 05:21:56;;;;;;;36.53;34.23;;;11.40;99.90;;;;;;4897034;29;20581;-63
2023/03/23 05:24:24;;;;;;;30.60;28.90;;;11.40;99.90;;;;;;4887043;29;20745;-64
2023/03/23 05:26:52;;;;;;;22.77;21.57;;;11.40;99.90;;;;;;4880087;29;20224;-63
2023/03/23 05:29:18;;;;;;;19.60;17.90;;;11.40;99.90;;;;;;4886920;29;20300;-63
2023/03/23 05:31:44;;;;;;;17.97;16.20;;;11.30;99.90;;;;;;4915780;29;20339;-62
2023/03/23 05:34:11;;;;;;;17.80;16.60;;;11.40;99.90;;;;;;4915375;29;20781;-64
2023/03/23 05:36:37;;;;;;;17.10;16.03;;;11.30;99.90;;;;;;4898947;29;20243;-64
2023/03/23 05:39:03;;;;;;;18.90;17.47;;;11.30;99.90;;;;;;4915222;29;20738;-64
2023/03/23 05:41:29;;;;;;;22.43;21.03;;;11.30;99.90;;;;;;4911058;29;20324;-65
2023/03/23 05:43:55;;;;;;;30.33;28.63;;;11.40;99.90;;;;;;4896934;29;20274;-65
2023/03/23 05:46:21;;;;;;;33.07;31.27;;;11.30;99.90;;;;;;4896496;29;20208;-65
2023/03/23 05:48:47;;;;;;;27.27;25.73;;;11.30;99.90;;;;;;4896326;29;20195;-65
2023/03/23 05:51:13;;;;;;;22.40;20.53;;;11.30;99.90;;;;;;4896508;29;20669;-65
2023/03/23 05:53:38;;;;;;;24.23;22.70;;;11.40;99.90;;;;;;4896553;29;20315;-64
2023/03/23 05:56:04;;;;;;;24.67;22.90;;;11.40;99.90;;;;;;4896499;29;20236;-63
2023/03/23 05:58:31;;;;;;;21.67;20.07;;;11.40;99.90;;;;;;4896251;29;20251;-63
2023/03/23 06:00:56;;;;;;;20.47;19.07;;;11.40;99.90;;;;;;4896265;29;20180;-64
2023/03/23 06:03:22;;;;;;;18.67;17.27;;;11.50;99.90;;;;;;4895122;29;20243;-63
2023/03/23 06:05:48;;;;;;;18.17;16.90;;;11.50;99.90;;;;;;4896067;29;20219;-64
2023/03/23 06:08:14;;;;;;;17.67;16.47;;;11.60;99.90;;;;;;4896346;29;20215;-64
2023/03/23 06:10:40;;;;;;;18.17;16.83;;;11.60;99.90;;;;;;4896402;29;20551;-64
2023/03/23 06:13:06;;;;;;;17.23;16.20;;;11.70;99.90;;;;;;4896738;29;20191;-65
2023/03/23 06:15:32;;;;;;;15.97;14.77;;;11.70;99.90;;;;;;4896063;29;20242;-64
2023/03/23 06:18:03;;;;;;;17.17;16.10;;;11.80;99.90;;;;;;4900520;29;20659;-65
2023/03/23 06:20:30;;;;;;;23.03;21.63;;;11.80;99.90;;;;;;4914516;29;20617;-65
2023/03/23 06:22:56;;;;;;;36.73;34.17;;;11.80;99.90;;;;;;4897731;29;20179;-65
2023/03/23 06:25:23;;;;;;;38.60;36.00;;;11.90;99.90;;;;;;4914780;29;20219;-65
2023/03/23 06:27:49;;;;;;;32.73;30.80;;;12.00;99.90;;;;;;4915079;29;20221;-65
2023/03/23 06:30:15;;;;;;;30.57;28.57;;;12.00;99.90;;;;;;4914393;29;20210;-65
2023/03/23 06:32:42;;;;;;;18.47;17.03;;;12.10;99.90;;;;;;4914924;29;20334;-64
2023/03/23 06:35:10;;;;;;;15.40;12.27;;;12.10;99.90;;;;;;4897735;29;20217;-64
2023/03/23 06:37:36;;;;;;;9.57;8.73;;;12.20;99.90;;;;;;4914740;29;20183;-64
2023/03/23 06:40:06;;;;;;;10.57;8.67;;;12.20;99.90;;;;;;4914676;29;20534;-68
2023/03/23 06:42:32;;;;;;;8.00;7.03;;;12.20;99.90;;;;;;4897952;29;20207;-68
2023/03/23 06:45:00;;;;;;;8.53;6.60;;;12.20;99.90;;;;;;4894601;29;20277;-69
2023/03/23 06:47:29;;;;;;;8.60;6.50;;;12.30;99.90;;;;;;4895598;29;20191;-67
2023/03/23 06:49:56;;;;;;;7.47;6.77;;;12.30;99.90;;;;;;4894432;29;20202;-68
2023/03/23 06:52:23;;;;;;;7.07;6.43;;;12.30;99.90;;;;;;4895954;29;20183;-68
2023/03/23 06:54:52;;;;;;;12.90;6.83;;;12.30;99.90;;;;;;4895835;29;20208;-68
2023/03/23 06:57:19;;;;;;;7.10;6.60;;;12.30;99.90;;;;;;4895306;29;20214;-68
2023/03/23 06:59:45;;;;;;;9.27;6.13;;;12.30;99.90;;;;;;4879364;29;20192;-68
2023/03/23 07:02:13;;;;;;;7.87;7.13;;;12.30;99.90;;;;;;4896187;29;20194;-68
2023/03/23 07:04:40;;;;;;;22.03;20.43;;;12.30;99.90;;;;;;4879261;29;20203;-68
2023/03/23 07:07:09;;;;;;;32.20;29.90;;;12.30;99.90;;;;;;4895753;29;20688;-67
2023/03/23 07:09:35;;;;;;;24.90;23.40;;;12.30;99.90;;;;;;4895516;29;20184;-68
2023/03/23 07:12:00;;;;;;;23.03;20.93;;;12.40;99.90;;;;;;4896170;29;20180;-67
2023/03/23 07:14:26;;;;;;;15.50;14.03;;;12.40;99.90;;;;;;4897408;29;20216;-67
2023/03/23 07:16:53;;;;;;;15.90;14.50;;;12.50;99.90;;;;;;4882974;29;20183;-68
2023/03/23 07:19:19;;;;;;;39.20;36.13;;;12.60;99.90;;;;;;4899167;29;20187;-68
2023/03/23 07:21:45;;;;;;;26.57;24.13;;;12.70;99.90;;;;;;4899605;29;20239;-67
2023/03/23 07:24:14;;;;;;;41.50;38.83;;;12.80;99.90;;;;;;4899354;29;20183;-66
2023/03/23 07:26:41;;;;;;;68.43;64.07;;;13.00;99.90;;;;;;4899423;29;20302;-68
2023/03/23 07:29:08;;;;;;;43.47;40.73;;;13.10;99.90;;;;;;4899077;29;20187;-68
2023/03/23 07:31:34;;;;;;;28.33;26.00;;;13.10;99.90;;;;;;4899531;29;20187;-68
2023/03/23 07:34:00;;;;;;;15.77;14.37;;;13.20;99.90;;;;;;4883118;29;20596;-68
2023/03/23 07:36:27;;;;;;;14.67;11.77;;;13.10;99.90;;;;;;4899930;29;20199;-68
2023/03/23 07:38:52;;;;;;;13.83;12.60;;;13.10;99.90;;;;;;4899105;29;20184;-68
2023/03/23 07:41:19;;;;;;;14.70;13.50;;;13.10;99.90;;;;;;4882443;29;20668;-68
2023/03/23 07:43:45;;;;;;;35.63;33.03;;;13.00;99.90;;;;;;4899254;29;20242;-68
2023/03/23 07:46:12;;;;;;;45.37;42.13;;;12.90;99.90;;;;;;4882517;29;20215;-68
2023/03/23 07:48:38;;;;;;;20.97;19.30;;;12.90;99.90;;;;;;4899026;29;20187;-68
2023/03/23 07:51:06;;;;;;;23.17;21.07;;;12.80;99.90;;;;;;4899465;29;20184;-68
2023/03/23 07:53:33;;;;;;;26.63;24.40;;;12.80;99.90;;;;;;4899227;29;20195;-68
2023/03/23 07:55:58;;;;;;;46.03;42.83;;;12.80;99.90;;;;;;4882290;29;20299;-68
2023/03/23 07:58:25;;;;;;;54.67;51.23;;;12.80;99.90;;;;;;4898980;29;20645;-69
2023/03/23 08:00:52;;;;;;;68.70;64.50;;;12.90;99.90;;;;;;4882769;29;20195;-68
2023/03/23 08:03:19;;;;;;;47.90;43.30;;;12.90;99.90;;;;;;4898950;29;20248;-68
2023/03/23 08:05:44;;;;;;;46.10;41.63;;;13.00;99.90;;;;;;4898582;29;20584;-67
2023/03/23 08:08:10;;;;;;;25.67;23.10;;;13.10;99.90;;;;;;4898758;29;20188;-68
2023/03/23 08:10:36;;;;;;;22.77;14.97;;;13.20;99.90;;;;;;4898513;29;20235;-68
2023/03/23 08:13:03;;;;;;;15.60;14.00;;;13.40;99.90;;;;;;4898688;29;20188;-68
2023/03/23 08:15:29;;;;;;;22.07;19.83;;;13.70;99.90;;;;;;4898723;29;20646;-68
2023/03/23 08:17:55;;;;;;;21.83;20.20;;;13.90;99.90;;;;;;4898514;29;20187;-68
2023/03/23 08:20:25;;;;;;;19.17;13.30;;;14.20;99.90;;;;;;4898347;29;20191;-68
2023/03/23 08:22:54;;;;;;;19.10;17.10;;;14.50;99.90;;;;;;4898724;29;20191;-68
2023/03/23 08:25:21;;;;;;;16.13;13.93;;;14.90;99.90;;;;;;4880884;29;20232;-67
2023/03/23 08:27:47;;;;;;;12.90;11.70;;;15.20;99.90;;;;;;4898474;29;20278;-68
2023/03/23 08:30:16;;;;;;;11.43;10.33;;;15.60;99.90;;;;;;4898542;29;20192;-68
2023/03/23 08:32:43;;;;;;;16.30;11.93;;;15.80;99.90;;;;;;4898326;29;20184;-68
2023/03/23 08:35:10;;;;;;;18.57;17.20;;;16.20;99.90;;;;;;4881530;29;20211;-68
2023/03/23 08:37:38;;;;;;;10.20;9.17;;;16.60;99.90;;;;;;4898403;29;20187;-68
2023/03/23 08:40:11;;;;;;;12.43;10.30;;;17.00;99.90;;;;;;4897980;29;20755;-68
2023/03/23 08:42:39;;;;;;;11.70;10.90;;;17.20;99.90;;;;;;4881808;29;20188;-68
2023/03/23 08:45:07;;;;;;;5.30;5.00;;;17.40;99.90;;;;;;4898440;29;20550;-68
2023/03/23 08:47:33;;;;;;;6.27;5.97;;;17.40;99.90;;;;;;4898295;29;20184;-69
2023/03/23 08:49:59;;;;;;;5.20;4.90;;;17.20;99.90;;;;;;4897799;29;20180;-68
2023/03/23 08:52:25;;;;;;;5.60;5.20;;;17.10;99.90;;;;;;4898085;29;20184;-68
2023/03/23 08:54:51;;;;;;;5.60;5.10;;;16.90;99.90;;;;;;4897937;29;20615;-68
2023/03/23 08:57:18;;;;;;;5.43;5.20;;;17.00;99.90;;;;;;4897981;29;20191;-68
2023/03/23 08:59:44;;;;;;;7.33;6.73;;;17.20;99.90;;;;;;4897453;29;20553;-68
2023/03/23 09:02:11;;;;;;;9.30;8.83;;;17.20;99.90;;;;;;4897969;29;20655;-68
2023/03/23 09:04:39;;;;;;;10.97;10.37;;;17.10;99.90;;;;;;4897896;29;20212;-68
2023/03/23 09:07:06;;;;;;;15.40;14.53;;;17.00;99.90;;;;;;4897687;29;20211;-68
2023/03/23 09:09:34;;;;;;;13.77;12.97;;;16.80;99.90;;;;;;4897290;29;20581;-68
2023/03/23 09:12:00;;;;;;;6.37;5.90;;;16.60;99.90;;;;;;4881097;29;20196;-67
2023/03/23 09:14:26;;;;;;;6.10;5.80;;;16.60;99.90;;;;;;4897420;29;20571;-68
2023/03/23 09:16:52;;;;;;;6.17;5.77;;;16.50;99.90;;;;;;4897523;29;20188;-68
2023/03/23 09:19:18;;;;;;;6.80;5.77;;;16.40;99.90;;;;;;4897507;29;20624;-68
2023/03/23 09:21:45;;;;;;;4.93;4.73;;;16.40;99.90;;;;;;4897549;29;20241;-67
2023/03/23 09:24:11;;;;;;;5.70;5.30;;;16.40;99.90;;;;;;4897339;29;20282;-68
2023/03/23 09:26:36;;;;;;;7.07;5.13;;;16.50;99.90;;;;;;4897273;29;20372;-68
2023/03/23 09:29:03;;;;;;;6.00;5.60;;;16.70;99.90;;;;;;4897187;29;20763;-67
2023/03/23 09:31:28;;;;;;;6.00;5.50;;;16.80;99.90;;;;;;4897359;29;20176;-68
2023/03/23 09:33:56;;;;;;;5.47;5.17;;;16.90;99.90;;;;;;4897280;29;20254;-68
2023/03/23 09:36:25;;;;;;;7.30;6.03;;;17.00;99.90;;;;;;4897057;29;20234;-67
2023/03/23 09:38:52;;;;;;;9.57;9.10;;;17.00;99.90;;;;;;4879962;29;20249;-68
2023/03/23 09:41:32;;;;;;;14.87;14.07;;;17.20;99.90;;;;;;4897113;29;20195;-68
2023/03/23 09:44:19;;;;;;;13.90;13.20;;;17.20;99.90;;;;;;4897087;29;20187;-68
2023/03/23 09:47:03;;;;;;;15.57;14.67;;;17.10;99.90;;;;;;4897020;29;20279;-68
2023/03/23 09:49:34;;;;;;;19.90;18.87;;;17.20;99.90;;;;;;4879928;29;20194;-68
2023/03/23 09:52:09;;;;;;;19.47;18.27;;;17.30;99.90;;;;;;4897040;29;20219;-68
2023/03/23 09:54:41;;;;;;;19.87;18.87;;;17.20;99.90;;;;;;4896776;29;20246;-67
2023/03/23 09:57:17;;;;;;;18.60;17.63;;;17.30;99.90;;;;;;4896836;29;20230;-69
2023/03/23 09:59:52;;;;;;;18.57;17.57;;;17.40;99.90;;;;;;4896333;29;20611;-68
2023/03/23 10:02:32;;;;;;;21.07;20.10;;;17.40;99.90;;;;;;4880032;29;20674;-68
2023/03/23 10:05:35;;;;;;;19.90;18.80;;;17.20;99.90;;;;;;4896670;29;20208;-68
2023/03/23 10:08:08;;;;;;;17.63;16.83;;;17.00;99.90;;;;;;4879891;29;20206;-69
2023/03/23 10:11:32;;;;;;;16.77;15.87;;;16.90;99.90;;;;;;4896355;29;20187;-68
2023/03/23 10:14:15;;;;;;;14.07;13.33;;;16.80;99.90;;;;;;4879959;29;20562;-68
2023/03/23 10:16:50;;;;;;;9.20;8.73;;;16.80;99.90;;;;;;4916574;23;20310;-71
2023/03/23 10:19:40;;;;;;;11.83;11.23;;;16.70;99.90;;;;;;4897664;29;20261;-71
2023/03/23 10:22:10;;;;;;;14.60;13.90;;;16.70;99.90;;;;;;4915430;29;20191;-71
2023/03/23 10:25:04;;;;;;;13.53;12.60;;;16.60;99.90;;;;;;4915134;29;20269;-71
2023/03/23 10:27:52;;;;;;;13.90;13.30;;;16.70;99.90;;;;;;4895783;29;20206;-71
2023/03/23 10:30:52;;;;;;;15.07;14.33;;;16.60;99.90;;;;;;4895863;29;20192;-71
2023/03/23 10:33:33;;;;;;;11.27;10.77;;;16.60;99.90;;;;;;4889338;29;20263;-71
2023/03/23 10:36:05;;;;;;;12.13;11.53;;;16.70;99.90;;;;;;4896297;29;20203;-72
2023/03/23 10:38:44;;;;;;;13.87;13.13;;;16.70;99.90;;;;;;4881324;29;20191;-70
2023/03/23 10:41:16;;;;;;;16.60;15.80;;;16.90;99.90;;;;;;4907651;29;20463;-72
2023/03/23 10:43:43;;;;;;;15.37;14.47;;;17.00;99.90;;;;;;4899773;29;20275;-72
2023/03/23 10:46:35;;;;;;;17.83;16.90;;;16.90;99.90;;;;;;4896335;29;20254;-72
2023/03/23 10:49:02;;;;;;;18.40;17.40;;;16.90;99.90;;;;;;4879049;29;20195;-71
2023/03/23 10:51:35;;;;;;;20.63;19.63;;;17.00;99.90;;;;;;4879718;29;20199;-71
2023/03/23 10:54:04;;;;;;;18.50;17.63;;;17.30;99.90;;;;;;4896524;29;20188;-70
2023/03/23 10:56:37;;;;;;;17.17;16.03;;;17.50;99.90;;;;;;4896046;29;20213;-71
2023/03/23 10:59:33;;;;;;;17.40;16.50;;;17.60;99.90;;;;;;4879113;29;20187;-71
2023/03/23 11:02:05;;;;;;;15.47;14.50;;;17.50;99.90;;;;;;4896232;29;20331;-71
2023/03/23 11:04:34;;;;;;;14.50;13.80;;;17.40;99.90;;;;;;4896329;29;20282;-72
2023/03/23 11:07:02;;;;;;;15.17;14.47;;;17.40;99.90;;;;;;4895640;29;20264;-71
2023/03/23 11:09:51;;;;;;;16.20;15.40;;;17.30;99.90;;;;;;4895728;29;20192;-71
2023/03/23 11:12:18;;;;;;;17.30;16.40;;;17.30;99.90;;;;;;4896072;29;20193;-71
2023/03/23 11:14:44;;;;;;;21.43;20.20;;;17.20;99.90;;;;;;4895813;29;20536;-71
2023/03/23 11:17:26;;;;;;;21.63;20.63;;;17.20;99.90;;;;;;4896033;29;20196;-71
2023/03/23 11:19:54;;;;;;;20.93;19.93;;;17.20;99.90;;;;;;4895650;29;20194;-72
2023/03/23 11:22:28;;;;;;;20.50;19.40;;;17.30;99.90;;;;;;4895876;29;20559;-71
2023/03/23 11:24:59;;;;;;;18.17;17.17;;;17.50;99.90;;;;;;4895969;29;20207;-71
2023/03/23 11:27:27;;;;;;;16.30;15.50;;;17.90;99.90;;;;;;4895915;29;20223;-72
2023/03/23 11:30:01;;;;;;;16.50;15.67;;;18.00;99.90;;;;;;4895652;29;20191;-71
2023/03/23 11:32:29;;;;;;;15.63;14.83;;;18.10;99.90;;;;;;4895978;29;20219;-71
2023/03/23 11:35:05;;;;;;;15.47;14.67;;;18.00;99.90;;;;;;4895716;29;20204;-71
2023/03/23 11:38:12;;;;;;;17.20;16.30;;;18.00;99.90;;;;;;4895942;29;20559;-71
2023/03/23 11:40:47;;;;;;;24.02;22.83;;;18.10;99.90;;;;;;4856197;29;20193;-71
2023/03/23 11:43:18;;;;;;;26.20;24.97;;;17.80;99.90;;;;;;4891752;29;20195;-71
2023/03/23 11:46:02;;;;;;;12.30;11.70;;;17.40;99.90;;;;;;4895644;29;20262;-71
2023/03/23 11:48:57;;;;;;;6.90;6.23;;;17.10;99.90;;;;;;4895616;29;20470;-72
2023/03/23 11:51:28;;;;;;;5.47;5.17;;;17.20;99.90;;;;;;4879143;29;20246;-71
2023/03/23 11:53:57;;;;;;;4.00;3.90;;;17.10;99.90;;;;;;4878966;29;20184;-71
2023/03/23 11:56:34;;;;;;;4.13;3.83;;;17.20;99.90;;;;;;4879025;29;20691;-71
2023/03/23 11:59:03;;;;;;;4.50;4.10;;;17.30;99.90;;;;;;4895391;29;20623;-72
2023/03/23 12:01:50;;;;;;;5.00;4.70;;;17.30;99.90;;;;;;4897019;29;20274;-71
2023/03/23 12:04:33;;;;;;;8.43;8.00;;;17.50;99.90;;;;;;4882236;29;20192;-72
2023/03/23 12:07:14;;;;;;;16.33;15.40;;;17.80;99.90;;;;;;4898945;29;20211;-72
2023/03/23 12:09:42;;;;;;;20.30;19.33;;;18.00;99.90;;;;;;4898552;29;20192;-70
2023/03/23 12:12:12;;;;;;;24.67;23.47;;;18.10;99.90;;;;;;4898852;29;20637;-70
2023/03/23 12:14:53;;;;;;;22.60;21.43;;;18.30;99.90;;;;;;4881960;29;20188;-71
2023/03/23 12:17:34;;;;;;;22.47;21.37;;;18.30;99.90;;;;;;4898797;29;20656;-69
2023/03/23 12:20:39;;;;;;;20.05;19.00;;;18.60;99.90;;;;;;4881512;29;20243;-69
2023/03/23 12:23:21;;;;;;;13.57;12.98;;;19.00;99.90;;;;;;4898579;29;20195;-70
2023/03/23 12:26:06;;;;;;;6.43;6.13;;;19.30;99.90;;;;;;4881720;29;20215;-72
2023/03/23 12:29:20;;;;;;;4.68;4.35;;;19.00;99.90;;;;;;4881346;29;20572;-70
2023/03/23 12:32:15;;;;;;;5.20;4.80;;;18.90;99.90;;;;;;4853231;29;20721;-70
2023/03/23 12:34:57;;;;;;;5.28;4.97;;;18.70;99.90;;;;;;4898390;29;20219;-70
2023/03/23 12:37:34;;;;;;;5.13;4.73;;;18.80;99.90;;;;;;4918458;29;20199;-71
2023/03/23 12:40:09;;;;;;;4.68;4.47;;;18.80;99.90;;;;;;4899798;29;20594;-70
2023/03/23 12:42:58;;;;;;;5.10;4.85;;;18.60;99.90;;;;;;4898402;29;20187;-70
2023/03/23 12:45:48;;;;;;;8.77;8.07;;;18.50;99.90;;;;;;4898148;29;20212;-70
2023/03/23 12:48:28;;;;;;;10.43;9.57;;;18.20;99.90;;;;;;4898203;29;20192;-71
2023/03/23 12:51:15;;;;;;;14.80;13.60;;;18.00;99.90;;;;;;4898149;29;20290;-70
2023/03/23 12:53:49;;;;;;;15.20;14.03;;;18.00;99.90;;;;;;4898292;29;20199;-70
2023/03/23 12:56:24;;;;;;;12.02;11.43;;;18.00;99.90;;;;;;4897860;29;20211;-70
2023/03/23 12:59:22;;;;;;;24.80;23.37;;;18.00;99.90;;;;;;4880994;29;20226;-70
2023/03/23 13:02:28;;;;;;;18.97;18.07;;;18.00;99.90;;;;;;4897841;29;20192;-70
2023/03/23 13:05:14;;;;;;;12.17;11.57;;;17.60;99.90;;;;;;4896255;29;20342;-70
2023/03/23 13:07:49;;;;;;;10.17;9.57;;;17.80;99.90;;;;;;4881050;29;20191;-70
2023/03/23 13:10:22;;;;;;;9.03;8.53;;;17.70;99.90;;;;;;4880597;29;20567;-70
2023/03/23 13:12:50;;;;;;;9.73;9.13;;;17.60;99.90;;;;;;4880604;29;20183;-70
2023/03/23 13:15:27;;;;;;;12.48;11.90;;;17.80;99.90;;;;;;4897442;29;20259;-70
2023/03/23 13:18:12;;;;;;;11.63;10.93;;;17.90;99.90;;;;;;4897767;29;20201;-72
2023/03/23 13:20:59;;;;;;;14.07;13.37;;;18.10;99.90;;;;;;4897282;29;20283;-72
2023/03/23 13:23:36;;;;;;;16.03;15.27;;;18.30;99.90;;;;;;4881094;29;20226;-70
2023/03/23 13:26:11;;;;;;;23.53;22.33;;;18.40;99.90;;;;;;4897663;29;20634;-71
2023/03/23 13:29:18;;;;;;;17.73;16.67;;;18.30;99.90;;;;;;4897601;29;20183;-72
2023/03/23 13:31:46;;;;;;;14.20;13.27;;;18.00;99.90;;;;;;4897491;29;20275;-71
2023/03/23 13:34:22;;;;;;;13.57;12.57;;;17.90;99.90;;;;;;4897331;29;20180;-71
2023/03/23 13:36:55;;;;;;;11.93;11.33;;;17.90;99.90;;;;;;4897222;29;20294;-70
2023/03/23 13:39:25;;;;;;;12.27;11.67;;;18.00;99.90;;;;;;4879955;29;20278;-71
2023/03/23 13:42:09;;;;;;;14.47;13.47;;;18.00;99.90;;;;;;4880351;29;20668;-71
2023/03/23 13:44:50;;;;;;;22.67;21.63;;;18.10;99.90;;;;;;4897189;29;20201;-71
2023/03/23 13:47:26;;;;;;;29.65;28.17;;;18.20;99.90;;;;;;4897089;29;20622;-71
2023/03/23 13:49:58;;;;;;;33.50;31.60;;;18.30;99.90;;;;;;4879958;29;20187;-71
2023/03/23 13:52:39;;;;;;;37.33;35.53;;;18.40;99.90;;;;;;4897049;29;20191;-71
2023/03/23 13:55:31;;;;;;;25.83;24.63;;;18.30;99.90;;;;;;4896836;29;20215;-71
2023/03/23 13:58:09;;;;;;;25.42;24.08;;;18.20;99.90;;;;;;4896941;29;20548;-69
2023/03/23 14:01:01;;;;;;;33.42;31.73;;;18.20;99.90;;;;;;4896648;29;20218;-69
2023/03/23 14:03:38;;;;;;;35.67;33.85;;;18.50;99.90;;;;;;4896910;29;20223;-70
2023/03/23 14:06:07;;;;;;;37.88;35.70;;;18.50;99.90;;;;;;4879940;29;20307;-71
2023/03/23 14:08:32;;;;;;;44.37;42.00;;;18.50;99.90;;;;;;4879704;29;20272;-71
2023/03/23 14:11:05;;;;;;;37.00;35.00;;;18.50;99.90;;;;;;4896726;29;20234;-71
2023/03/23 14:13:47;;;;;;;39.75;37.55;;;18.30;99.90;;;;;;4896766;29;20184;-71
2023/03/23 14:16:21;;;;;;;25.17;23.63;;;18.10;99.90;;;;;;4896316;29;20742;-71
2023/03/23 14:18:59;;;;;;;16.27;15.17;;;18.00;99.90;;;;;;4879543;29;20660;-71
2023/03/23 14:21:40;;;;;;;15.23;14.23;;;18.00;99.90;;;;;;4896688;29;20584;-71
2023/03/23 14:24:15;;;;;;;14.10;13.30;;;18.00;99.90;;;;;;4895865;29;20211;-71
2023/03/23 14:26:42;;;;;;;12.03;11.43;;;17.90;99.90;;;;;;4896390;29;20298;-71
2023/03/23 14:29:11;;;;;;;12.57;11.57;;;17.90;99.90;;;;;;4896129;29;20176;-71
2023/03/23 14:31:37;;;;;;;8.00;7.53;;;17.80;99.90;;;;;;4901940;29;20178;-71
2023/03/23 14:34:11;;;;;;;7.60;7.00;;;17.70;99.90;;;;;;4898145;29;20184;-71
2023/03/23 14:36:39;;;;;;;7.83;7.33;;;17.70;99.90;;;;;;4896985;29;20222;-71
2023/03/23 14:39:19;;;;;;;9.10;8.60;;;17.80;99.90;;;;;;4896287;29;20187;-71
2023/03/23 14:41:45;;;;;;;17.80;16.60;;;18.00;99.90;;;;;;4880296;29;20210;-71
2023/03/23 14:44:16;;;;;;;25.40;23.90;;;18.10;99.90;;;;;;4897187;29;20687;-71
2023/03/23 14:46:43;;;;;;;29.93;28.43;;;18.30;99.90;;;;;;4880313;29;20223;-71
2023/03/23 14:49:16;;;;;;;34.00;32.20;;;18.40;99.90;;;;;;4895958;29;20204;-71
2023/03/23 14:51:54;;;;;;;36.50;34.30;;;18.40;99.90;;;;;;4896228;29;20183;-71
2023/03/23 14:54:26;;;;;;;38.13;36.23;;;18.40;99.90;;;;;;4896142;29;20179;-71
2023/03/23 14:56:53;;;;;;;46.07;43.67;;;18.40;99.90;;;;;;4879428;29;20262;-71
2023/03/23 14:59:18;;;;;;;40.77;38.43;;;18.40;99.90;;;;;;4895735;29;20187;-71
2023/03/23 15:01:47;;;;;;;41.60;39.30;;;18.30;99.90;;;;;;4896090;29;20192;-71
2023/03/23 15:04:25;;;;;;;33.50;31.80;;;18.20;99.90;;;;;;4896042;29;20188;-71
2023/03/23 15:07:05;;;;;;;27.00;25.67;;;18.10;99.90;;;;;;4896020;29;20314;-70
2023/03/23 15:09:31;;;;;;;31.30;29.57;;;18.00;99.90;;;;;;4895768;29;20231;-70
2023/03/23 15:12:01;;;;;;;28.42;26.92;;;18.00;99.90;;;;;;4895941;29;20209;-71
2023/03/23 15:14:31;;;;;;;39.17;37.10;;;18.10;99.90;;;;;;4896138;29;20642;-71
2023/03/23 15:16:59;;;;;;;36.23;34.33;;;18.00;99.90;;;;;;4879228;29;20710;-71
2023/03/23 15:19:35;;;;;;;20.80;19.80;;;17.90;99.90;;;;;;4895689;29;20632;-71
2023/03/23 15:22:35;;;;;;;13.47;12.87;;;17.90;99.90;;;;;;4896073;29;20660;-70
2023/03/23 15:25:11;;;;;;;6.80;6.30;;;17.80;99.90;;;;;;4887424;29;20306;-71
2023/03/23 15:27:42;;;;;;;5.33;4.93;;;17.80;99.90;;;;;;4896040;29;20183;-71
2023/03/23 15:30:29;;;;;;;5.50;5.10;;;17.80;99.90;;;;;;4895581;29;20575;-71
2023/03/23 15:33:06;;;;;;;5.00;4.60;;;17.80;99.90;;;;;;4896353;29;20615;-71
2023/03/23 15:35:38;;;;;;;5.57;5.27;;;17.80;99.90;;;;;;4897433;29;20226;-70
2023/03/23 15:38:13;;;;;;;4.67;4.40;;;17.80;99.90;;;;;;4899356;29;20183;-70
2023/03/23 15:40:39;;;;;;;5.20;4.77;;;17.80;99.90;;;;;;4899187;29;20183;-72
2023/03/23 15:43:15;;;;;;;4.63;4.33;;;17.70;99.90;;;;;;4882700;29;20184;-72
2023/03/23 15:46:18;;;;;;;4.77;4.37;;;17.70;99.90;;;;;;4882416;29;20230;-70
2023/03/23 15:49:07;;;;;;;4.87;4.57;;;17.80;99.90;;;;;;4899044;29;20350;-71
2023/03/23 15:51:33;;;;;;;4.90;4.57;;;17.70;99.90;;;;;;4899276;29;20215;-69
2023/03/23 15:53:59;;;;;;;4.87;4.43;;;17.70;99.90;;;;;;4899399;29;20692;-71
2023/03/23 15:56:25;;;;;;;4.73;4.27;;;17.70;99.90;;;;;;4899131;29;20211;-71
2023/03/23 15:58:52;;;;;;;4.97;4.77;;;17.70;99.90;;;;;;4898822;29;20184;-70
2023/03/23 16:01:21;;;;;;;5.47;5.17;;;17.60;99.90;;;;;;4899201;29;20290;-70
2023/03/23 16:04:04;;;;;;;6.63;5.97;;;17.60;99.90;;;;;;4899076;29;20195;-70
2023/03/23 16:06:32;;;;;;;5.47;5.17;;;17.50;99.90;;;;;;4898830;29;20223;-70
2023/03/23 16:08:58;;;;;;;5.50;5.20;;;17.50;99.90;;;;;;4882183;29;20191;-71
2023/03/23 16:11:28;;;;;;;6.73;6.13;;;17.50;99.90;;;;;;4882070;29;20684;-71
2023/03/23 16:13:54;;;;;;;12.97;11.53;;;17.50;99.90;;;;;;4898979;29;20187;-71
2023/03/23 16:16:25;;;;;;;18.17;15.87;;;17.50;99.90;;;;;;4930273;23;20238;-69
2023/03/23 16:18:51;;;;;;;7.43;6.53;;;17.50;99.90;;;;;;4899799;29;20187;-69
2023/03/23 16:21:17;;;;;;;7.33;6.73;;;17.50;99.90;;;;;;4900231;29;20183;-70
2023/03/23 16:23:45;;;;;;;7.23;6.53;;;17.50;99.90;;;;;;4900784;29;20187;-70
2023/03/23 16:26:11;;;;;;;6.30;5.80;;;17.40;99.90;;;;;;4908088;29;20241;-71
2023/03/23 16:28:37;;;;;;;6.47;6.17;;;17.40;99.90;;;;;;4898553;29;20282;-70
2023/03/23 16:31:03;;;;;;;7.50;6.90;;;17.50;99.90;;;;;;4898288;29;20223;-70
2023/03/23 16:33:29;;;;;;;6.30;5.70;;;17.40;99.90;;;;;;4898503;29;20215;-71
2023/03/23 16:35:57;;;;;;;6.47;5.87;;;17.40;99.90;;;;;;4898030;29;20635;-70
2023/03/23 16:38:23;;;;;;;5.87;5.47;;;17.40;99.90;;;;;;4899043;29;20184;-71
2023/03/23 16:40:49;;;;;;;5.13;4.73;;;17.40;99.90;;;;;;4898802;29;20186;-70
2023/03/23 16:43:14;;;;;;;5.07;4.67;;;17.30;99.90;;;;;;4898309;29;20192;-70
2023/03/23 16:45:42;;;;;;;8.07;4.20;;;17.30;99.90;;;;;;4897950;29;20358;-71
2023/03/23 16:48:09;;;;;;;4.37;4.10;;;17.20;99.90;;;;;;4897343;29;20202;-70
2023/03/23 16:50:36;;;;;;;5.40;4.70;;;17.20;99.90;;;;;;4880959;29;20180;-71
2023/03/23 16:53:03;;;;;;;4.57;4.27;;;17.20;99.90;;;;;;4898065;29;20279;-70
2023/03/23 16:55:30;;;;;;;4.77;4.50;;;17.20;99.90;;;;;;4897819;29;20234;-70
2023/03/23 16:57:56;;;;;;;5.10;4.57;;;17.20;99.90;;;;;;4897926;29;20188;-70